Wednesday, October 01, 2014
12:20 UTC
  |  Log In   |  Register Free
Airport Search:

Clinton-Sampson County Airport
(KCTZ)

Clinton-Sampson County Airport Diagram
No Airport Diagram Available

FAA data valid effective September 18, 2014 - November 13, 2014 (unless otherwise noted).

 
 
 
 
 
 
 
 
 
 
 
 
 
 

Current Aviation Weather for Clinton-Sampson County Airport (KCTZ)

The most recent METAR observation for KCTZ was updated at: 1210
METAR Summary (Translated METAR)
KCTZ
011155Z AUTO 00000KT 1/4SM FG OVC001 16/16 A2998 RMK AO2 T01570157 10166 20142
KDPL
011156Z AUTO 00000KT M1/4SM FG OVC001 16/16 A2998 RMK AO2
(18.9 nm NE from KCTZ)
KEYF
011155Z AUTO 00000KT 1/2SM FG OVC001 15/15 A2997 RMK AO2 T01480148 10173 20147
(24.7 nm SW from KCTZ)
TAF
No TAF information found within 50 nm of KCTZ
  Airport Weather Conditions for KCTZ

 Current Weather at CTZ
60° F
Fog
North winds at 0.0 mph
CTZ NOAA Radar

Pressure: 29.97 in
Humidity: 100%
Wind: Calm
Dew Point: 60.1°F
Visibility: 0.25 mi


Airport Weather Forecast for KCTZ

Translated METAR and TAF for KCTZ
Translated METAR for KCTZ (1215 UTC 01 October 2014)
found at http://aviationweather.gov/adds/metars/
 
METAR text: KCTZ 011155Z AUTO 00000KT 1/4SM FG OVC001 16/16 A2998 RMK AO2 T01570157 10166 20142
Conditions at: KCTZ (CLINTON , NC, US) observed 1155 UTC 01 October 2014
Temperature: 15.7°C (60°F)
Dewpoint: 15.7°C (60°F) [RH = 100%]
Pressure (altimeter): 29.98 inches Hg (1015.3 mb)
Winds: calm
Visibility: 0.25 miles (0.40 km)
Ceiling: 100 feet AGL
Clouds: overcast cloud deck at 100 feet AGL
Weather: FG  (fog)
Translated TAF for KCTZ

There is no translated TAF available for this airport

Find All Airport Services Find A Hotel Find A Rental Car Find A Golf Course Find A Restaurant $100 Hamburger



FBO's on the Field
FBO Company Facility Photos Services Transportation Aviation Fuel Prices: Prices include tax
Catering Weather Repair Courtesy Rental Type 100LL JetA JetA+ MOGAS 8087
 
Clinton Flying Service

This FBO has not yet been rated
FS:Shell
Last Updated: Aug-25
Login to update fuel prices
SS:
Contact Clinton Flying ServiceMore FBO Information
 
Add another FBO Facility Photos Catering Weather Repair Courtesy Rental Type 100LL JetA JetA+ MOGAS 8087
Services Transportation Aviation Fuel Prices: Prices include tax


model-print
model-print
model-print
model-print